CPA7MH VHHH-VNKT
Flight info
| Callsign | CPA7MH |
|---|---|
| Flight time | N/A |
| Altitude | 34000 |
| Route | PECAN V10 SIKOU/K0870S1040 A202 ASSAD/K0876F340 A206 NALAO/N0472F340 A206 LPB B465 MDY/N0470F360 B465 CTG G463 ROMEO ROMEO1G |
| Aircraft | A21N/M-SDE2E3FGHIRWXY/LB1 |
Departure
| Time | 2026-05-07 18:22 |
|---|---|
| Airport | Hong Kong International Airport (VHHH) |
Arrival
| Time | N/A |
|---|---|
| Airport | Tribhuvan International Airport (VNKT) |
| Time | Latitude | Longitude | Altitude | Speed | Heading |
|---|---|---|---|---|---|
| 2026-05-07 18:01 | 22.31307 | 113.92967 | 42 ft | 0 kts | 340° |
| 2026-05-07 18:09 | 22.31303 | 113.92969 | 42 ft | 4 kts | 340° |
| 2026-05-07 18:09 | 22.31278 | 113.92979 | 41 ft | 4 kts | 335° |
| 2026-05-07 18:10 | 22.31254 | 113.92993 | 42 ft | 4 kts | 327° |
| 2026-05-07 18:10 | 22.31233 | 113.93011 | 39 ft | 4 kts | 309° |
| 2026-05-07 18:10 | 22.31223 | 113.93033 | 41 ft | 4 kts | 258° |
| 2026-05-07 18:10 | 22.31226 | 113.93042 | 41 ft | 0 kts | 251° |
| 2026-05-07 18:13 | 22.31222 | 113.93033 | 41 ft | 4 kts | 250° |
| 2026-05-07 18:14 | 22.31199 | 113.92962 | 41 ft | 16 kts | 251° |
| 2026-05-07 18:14 | 22.31134 | 113.92869 | 42 ft | 17 kts | 207° |
| 2026-05-07 18:14 | 22.31026 | 113.92812 | 42 ft | 18 kts | 206° |
| 2026-05-07 18:14 | 22.30913 | 113.92752 | 41 ft | 19 kts | 216° |
| 2026-05-07 18:15 | 22.30827 | 113.92646 | 41 ft | 19 kts | 236° |
| 2026-05-07 18:15 | 22.30776 | 113.92511 | 42 ft | 20 kts | 250° |
| 2026-05-07 18:15 | 22.30730 | 113.92368 | 42 ft | 20 kts | 251° |
| 2026-05-07 18:15 | 22.30683 | 113.92220 | 42 ft | 21 kts | 251° |
| 2026-05-07 18:16 | 22.30634 | 113.92070 | 43 ft | 22 kts | 251° |
| 2026-05-07 18:16 | 22.30583 | 113.91912 | 42 ft | 23 kts | 250° |
| 2026-05-07 18:16 | 22.30559 | 113.91750 | 42 ft | 23 kts | 312° |
| 2026-05-07 18:16 | 22.30711 | 113.91682 | 42 ft | 24 kts | 341° |
| 2026-05-07 18:17 | 22.30872 | 113.91621 | 42 ft | 25 kts | 341° |
| 2026-05-07 18:17 | 22.31039 | 113.91558 | 42 ft | 26 kts | 341° |
| 2026-05-07 18:17 | 22.31211 | 113.91494 | 42 ft | 27 kts | 341° |
| 2026-05-07 18:17 | 22.31389 | 113.91424 | 43 ft | 28 kts | 329° |
| 2026-05-07 18:18 | 22.31373 | 113.91231 | 43 ft | 29 kts | 250° |
| 2026-05-07 18:18 | 22.31307 | 113.91024 | 42 ft | 30 kts | 251° |
| 2026-05-07 18:18 | 22.31239 | 113.90813 | 42 ft | 31 kts | 250° |
| 2026-05-07 18:18 | 22.31166 | 113.90590 | 42 ft | 32 kts | 251° |
| 2026-05-07 18:19 | 22.31094 | 113.90366 | 42 ft | 32 kts | 251° |
| 2026-05-07 18:19 | 22.31021 | 113.90143 | 42 ft | 20 kts | 251° |
| 2026-05-07 18:19 | 22.30974 | 113.89998 | 42 ft | 21 kts | 251° |
| 2026-05-07 18:19 | 22.30930 | 113.89849 | 42 ft | 21 kts | 271° |
| 2026-05-07 18:20 | 22.30995 | 113.89790 | 42 ft | 9 kts | 341° |
| 2026-05-07 18:20 | 22.31063 | 113.89772 | 42 ft | 12 kts | 12° |
| 2026-05-07 18:20 | 22.31110 | 113.89845 | 42 ft | 12 kts | 71° |
| 2026-05-07 18:20 | 22.31114 | 113.89857 | 39 ft | 0 kts | 71° |
| 2026-05-07 18:21 | 22.31138 | 113.89932 | 41 ft | 40 kts | 70° |
| 2026-05-07 18:21 | 22.31319 | 113.90490 | 37 ft | 114 kts | 71° |
| 2026-05-07 18:21 | 22.31650 | 113.91514 | 45 ft | 172 kts | 71° |
| 2026-05-07 18:21 | 22.32049 | 113.92773 | 548 ft | 177 kts | 72° |
| 2026-05-07 18:22 | 22.32449 | 113.94065 | 1098 ft | 191 kts | 72° |
| 2026-05-07 18:22 | 22.32747 | 113.95015 | 1474 ft | 202 kts | 72° |
| 2026-05-07 18:22 | 22.33434 | 113.96970 | 2277 ft | 218 kts | 63° |
| 2026-05-07 18:22 | 22.34270 | 113.98384 | 2797 ft | 231 kts | 58° |
| 2026-05-07 18:23 | 22.34793 | 114.00097 | 3060 ft | 253 kts | 90° |
| 2026-05-07 18:23 | 22.34331 | 114.01960 | 3484 ft | 265 kts | 124° |
| 2026-05-07 18:23 | 22.32968 | 114.03282 | 4125 ft | 268 kts | 156° |
| 2026-05-07 18:23 | 22.31147 | 114.03705 | 4844 ft | 270 kts | 177° |
| 2026-05-07 18:24 | 22.29262 | 114.03765 | 5534 ft | 273 kts | 179° |
| 2026-05-07 18:24 | 22.27371 | 114.03830 | 6224 ft | 276 kts | 179° |
| 2026-05-07 18:24 | 22.25441 | 114.03930 | 6878 ft | 279 kts | 178° |
| 2026-05-07 18:24 | 22.23486 | 114.04054 | 7523 ft | 283 kts | 178° |
| 2026-05-07 18:25 | 22.21510 | 114.04196 | 8185 ft | 286 kts | 177° |
| 2026-05-07 18:25 | 22.19508 | 114.04350 | 8845 ft | 290 kts | 177° |
| 2026-05-07 18:25 | 22.17486 | 114.04510 | 9510 ft | 293 kts | 177° |
| 2026-05-07 18:25 | 22.15441 | 114.04672 | 10111 ft | 298 kts | 177° |
| 2026-05-07 18:26 | 22.13318 | 114.04843 | 10402 ft | 314 kts | 177° |
| 2026-05-07 18:26 | 22.11075 | 114.05025 | 10647 ft | 331 kts | 177° |
| 2026-05-07 18:26 | 22.08709 | 114.05217 | 10874 ft | 349 kts | 177° |
| 2026-05-07 18:26 | 22.06231 | 114.05419 | 11085 ft | 365 kts | 177° |
| 2026-05-07 18:27 | 22.03676 | 114.05627 | 11284 ft | 380 kts | 177° |
| 2026-05-07 18:27 | 22.00991 | 114.05848 | 11479 ft | 393 kts | 177° |
| 2026-05-07 18:27 | 21.98212 | 114.06076 | 11655 ft | 406 kts | 177° |
| 2026-05-07 18:27 | 21.96336 | 114.06229 | 11841 ft | 410 kts | 177° |
| 2026-05-07 18:28 | 21.92506 | 114.06545 | 12365 ft | 415 kts | 177° |
| 2026-05-07 18:28 | 21.89604 | 114.06785 | 12768 ft | 418 kts | 177° |
| 2026-05-07 18:28 | 21.86745 | 114.07019 | 13188 ft | 420 kts | 177° |
| 2026-05-07 18:28 | 21.83777 | 114.07259 | 13626 ft | 423 kts | 177° |
| 2026-05-07 18:29 | 21.80869 | 114.07496 | 13977 ft | 425 kts | 177° |
| 2026-05-07 18:29 | 21.77909 | 114.07739 | 14293 ft | 427 kts | 177° |
| 2026-05-07 18:29 | 21.74935 | 114.07982 | 14631 ft | 429 kts | 177° |
| 2026-05-07 18:29 | 21.71940 | 114.08225 | 14995 ft | 432 kts | 177° |
| 2026-05-07 18:30 | 21.68940 | 114.08469 | 15367 ft | 434 kts | 177° |
| 2026-05-07 18:30 | 21.65913 | 114.08657 | 15718 ft | 436 kts | 181° |
| 2026-05-07 18:30 | 21.62890 | 114.08402 | 16022 ft | 435 kts | 191° |
| 2026-05-07 18:30 | 21.59929 | 114.07706 | 16312 ft | 436 kts | 195° |
| 2026-05-07 18:31 | 21.56978 | 114.06914 | 16595 ft | 438 kts | 196° |
| 2026-05-07 18:31 | 21.54044 | 114.06127 | 16868 ft | 440 kts | 195° |
| 2026-05-07 18:31 | 21.51056 | 114.05341 | 17151 ft | 442 kts | 195° |
| 2026-05-07 18:31 | 21.48059 | 114.04561 | 17429 ft | 444 kts | 195° |
| 2026-05-07 18:32 | 21.45074 | 114.03692 | 17695 ft | 444 kts | 200° |
| 2026-05-07 18:32 | 21.42249 | 114.02346 | 17965 ft | 444 kts | 211° |
| 2026-05-07 18:32 | 21.39637 | 114.00575 | 18235 ft | 444 kts | 215° |
| 2026-05-07 18:32 | 21.37060 | 113.98719 | 18471 ft | 446 kts | 216° |
| 2026-05-07 18:33 | 21.34511 | 113.96886 | 18702 ft | 448 kts | 215° |
| 2026-05-07 18:33 | 21.31904 | 113.95025 | 18939 ft | 450 kts | 215° |
| 2026-05-07 18:33 | 21.29286 | 113.93168 | 19179 ft | 452 kts | 215° |
| 2026-05-07 18:33 | 21.26648 | 113.91304 | 19445 ft | 455 kts | 215° |
| 2026-05-07 18:34 | 21.23990 | 113.89426 | 19721 ft | 457 kts | 215° |
| 2026-05-07 18:34 | 21.21330 | 113.87547 | 19993 ft | 459 kts | 215° |
| 2026-05-07 18:34 | 21.18693 | 113.85687 | 20245 ft | 461 kts | 215° |
| 2026-05-07 18:34 | 21.15973 | 113.83769 | 20523 ft | 463 kts | 215° |
| 2026-05-07 18:35 | 21.13280 | 113.81857 | 20798 ft | 465 kts | 216° |
| 2026-05-07 18:35 | 21.10806 | 113.79701 | 21119 ft | 465 kts | 226° |
| 2026-05-07 18:35 | 21.08717 | 113.77063 | 21472 ft | 465 kts | 237° |
| 2026-05-07 18:35 | 21.07149 | 113.74031 | 21819 ft | 465 kts | 248° |
| 2026-05-07 18:36 | 21.06027 | 113.70769 | 22150 ft | 467 kts | 252° |
| 2026-05-07 18:36 | 21.04989 | 113.67463 | 22444 ft | 469 kts | 253° |
| 2026-05-07 18:36 | 21.03944 | 113.64143 | 22730 ft | 472 kts | 252° |
| 2026-05-07 18:36 | 21.02881 | 113.60819 | 22990 ft | 474 kts | 252° |
| 2026-05-07 18:37 | 21.01796 | 113.57458 | 23236 ft | 476 kts | 252° |
| 2026-05-07 18:37 | 21.00724 | 113.54153 | 23476 ft | 477 kts | 252° |
| 2026-05-07 18:37 | 20.99632 | 113.50793 | 23712 ft | 478 kts | 252° |
| 2026-05-07 18:37 | 20.98538 | 113.47435 | 23974 ft | 477 kts | 252° |
| 2026-05-07 18:38 | 20.97446 | 113.44085 | 24225 ft | 477 kts | 252° |
| 2026-05-07 18:38 | 20.96355 | 113.40732 | 24463 ft | 476 kts | 252° |
| 2026-05-07 18:38 | 20.95264 | 113.37378 | 24714 ft | 476 kts | 252° |
| 2026-05-07 18:38 | 20.94173 | 113.34029 | 24954 ft | 475 kts | 252° |
| 2026-05-07 18:39 | 20.93086 | 113.30694 | 25204 ft | 475 kts | 252° |
| 2026-05-07 18:39 | 20.92366 | 113.28487 | 25371 ft | 475 kts | 252° |
| 2026-05-07 18:39 | 20.91276 | 113.25154 | 25635 ft | 474 kts | 252° |
| 2026-05-07 18:39 | 20.90184 | 113.21814 | 25880 ft | 474 kts | 252° |
| 2026-05-07 18:40 | 20.89092 | 113.18486 | 26136 ft | 474 kts | 252° |
| 2026-05-07 18:40 | 20.88000 | 113.15158 | 26392 ft | 473 kts | 252° |
| 2026-05-07 18:40 | 20.86912 | 113.11839 | 26657 ft | 473 kts | 252° |
| 2026-05-07 18:40 | 20.85841 | 113.08564 | 26902 ft | 472 kts | 252° |
| 2026-05-07 18:41 | 20.84754 | 113.05245 | 27161 ft | 472 kts | 252° |
| 2026-05-07 18:41 | 20.83665 | 113.01926 | 27412 ft | 472 kts | 252° |
| 2026-05-07 18:41 | 20.82577 | 112.98613 | 27675 ft | 471 kts | 251° |
| 2026-05-07 18:41 | 20.81489 | 112.95303 | 27921 ft | 471 kts | 251° |
| 2026-05-07 18:42 | 20.80405 | 112.92006 | 28171 ft | 470 kts | 251° |
| 2026-05-07 18:42 | 20.79319 | 112.88703 | 28421 ft | 470 kts | 251° |
| 2026-05-07 18:42 | 20.78232 | 112.85407 | 28684 ft | 470 kts | 251° |
| 2026-05-07 18:42 | 20.77158 | 112.82153 | 28910 ft | 469 kts | 251° |
| 2026-05-07 18:43 | 20.76073 | 112.78862 | 29171 ft | 469 kts | 251° |
| 2026-05-07 18:43 | 20.74988 | 112.75580 | 29420 ft | 469 kts | 251° |
| 2026-05-07 18:43 | 20.73904 | 112.72299 | 29665 ft | 468 kts | 251° |
| 2026-05-07 18:43 | 20.72819 | 112.69017 | 29911 ft | 468 kts | 251° |
| 2026-05-07 18:44 | 20.71729 | 112.65726 | 30142 ft | 467 kts | 251° |
| 2026-05-07 18:44 | 20.70659 | 112.62495 | 30338 ft | 467 kts | 251° |
| 2026-05-07 18:44 | 20.69574 | 112.59221 | 30568 ft | 466 kts | 251° |
| 2026-05-07 18:44 | 20.68492 | 112.55959 | 30790 ft | 465 kts | 251° |
| 2026-05-07 18:45 | 20.67414 | 112.52711 | 31013 ft | 464 kts | 252° |
| 2026-05-07 18:45 | 20.66333 | 112.49458 | 31246 ft | 463 kts | 252° |
| 2026-05-07 18:45 | 20.65255 | 112.46218 | 31463 ft | 463 kts | 252° |
| 2026-05-07 18:45 | 20.64181 | 112.42983 | 31690 ft | 462 kts | 252° |
| 2026-05-07 18:46 | 20.63108 | 112.39756 | 31917 ft | 461 kts | 252° |
| 2026-05-07 18:46 | 20.62033 | 112.36530 | 32143 ft | 460 kts | 252° |
| 2026-05-07 18:46 | 20.60960 | 112.33310 | 32371 ft | 459 kts | 252° |
| 2026-05-07 18:46 | 20.59905 | 112.30145 | 32573 ft | 458 kts | 252° |
| 2026-05-07 18:47 | 20.58838 | 112.26946 | 32782 ft | 457 kts | 252° |
| 2026-05-07 18:47 | 20.57766 | 112.23739 | 32978 ft | 456 kts | 252° |
| 2026-05-07 18:47 | 20.56745 | 112.20534 | 33182 ft | 455 kts | 256° |
| 2026-05-07 18:47 | 20.56173 | 112.17230 | 33346 ft | 451 kts | 267° |
| 2026-05-07 18:48 | 20.56258 | 112.13902 | 33509 ft | 448 kts | 279° |
| 2026-05-07 18:48 | 20.56984 | 112.10717 | 33648 ft | 446 kts | 290° |
| 2026-05-07 18:48 | 20.58240 | 112.07693 | 33813 ft | 445 kts | 296° |
| 2026-05-07 18:48 | 20.59624 | 112.04734 | 33927 ft | 446 kts | 297° |
| 2026-05-07 18:49 | 20.61013 | 112.01770 | 33935 ft | 444 kts | 296° |
| 2026-05-07 18:49 | 20.63733 | 111.95850 | 33917 ft | 443 kts | 296° |
| 2026-05-07 18:50 | 20.66394 | 111.89943 | 33913 ft | 444 kts | 296° |
| 2026-05-07 18:50 | 20.69061 | 111.84000 | 33916 ft | 443 kts | 296° |
| 2026-05-07 18:51 | 20.71739 | 111.78059 | 33899 ft | 443 kts | 296° |
| 2026-05-07 18:51 | 20.74410 | 111.72121 | 33905 ft | 444 kts | 296° |
| 2026-05-07 18:52 | 20.77079 | 111.66183 | 33903 ft | 444 kts | 296° |
| 2026-05-07 18:52 | 20.79749 | 111.60230 | 33906 ft | 443 kts | 296° |
| 2026-05-07 18:53 | 20.82291 | 111.54277 | 33904 ft | 443 kts | 289° |
| 2026-05-07 18:53 | 20.83028 | 111.51064 | 33909 ft | 447 kts | 278° |
| 2026-05-07 18:53 | 20.83120 | 111.47748 | 33917 ft | 447 kts | 266° |
| 2026-05-07 18:53 | 20.82541 | 111.44463 | 33915 ft | 453 kts | 255° |
| 2026-05-07 18:54 | 20.81506 | 111.41288 | 33913 ft | 452 kts | 252° |
| 2026-05-07 18:54 | 20.79302 | 111.34981 | 33911 ft | 453 kts | 252° |
| 2026-05-07 18:55 | 20.77164 | 111.28705 | 33914 ft | 453 kts | 252° |
| 2026-05-07 18:55 | 20.75034 | 111.22370 | 33904 ft | 453 kts | 252° |
| 2026-05-07 18:56 | 20.72903 | 111.16037 | 33911 ft | 454 kts | 252° |
| 2026-05-07 18:56 | 20.70765 | 111.09694 | 33913 ft | 453 kts | 252° |
| 2026-05-07 18:57 | 20.68626 | 111.03352 | 33915 ft | 453 kts | 252° |
| 2026-05-07 18:57 | 20.66501 | 110.97061 | 33906 ft | 453 kts | 252° |
| 2026-05-07 18:58 | 20.64350 | 110.90713 | 33911 ft | 455 kts | 252° |
| 2026-05-07 18:58 | 20.62216 | 110.84356 | 33910 ft | 456 kts | 253° |
| 2026-05-07 18:59 | 20.60082 | 110.77991 | 33911 ft | 456 kts | 252° |
| 2026-05-07 18:59 | 20.57953 | 110.71625 | 33909 ft | 456 kts | 252° |
| 2026-05-07 19:00 | 20.55826 | 110.65306 | 33903 ft | 455 kts | 252° |
| 2026-05-07 19:00 | 20.53684 | 110.58949 | 33910 ft | 456 kts | 252° |
| 2026-05-07 19:01 | 20.51529 | 110.52573 | 33912 ft | 456 kts | 252° |
| 2026-05-07 19:01 | 20.48399 | 110.46642 | 33901 ft | 464 kts | 234° |
| 2026-05-07 19:02 | 20.44306 | 110.41338 | 33907 ft | 463 kts | 233° |
| 2026-05-07 19:02 | 20.40234 | 110.36065 | 33905 ft | 462 kts | 233° |
| 2026-05-07 19:03 | 20.36172 | 110.30753 | 33901 ft | 462 kts | 233° |
| 2026-05-07 19:03 | 20.32112 | 110.25445 | 33904 ft | 461 kts | 233° |
| 2026-05-07 19:04 | 20.28081 | 110.20145 | 33907 ft | 461 kts | 234° |
| 2026-05-07 19:04 | 20.24083 | 110.14787 | 33897 ft | 460 kts | 234° |
| 2026-05-07 19:05 | 20.20115 | 110.09490 | 33899 ft | 460 kts | 234° |
| 2026-05-07 19:05 | 20.16121 | 110.04168 | 33897 ft | 460 kts | 234° |
| 2026-05-07 19:06 | 20.12117 | 109.98837 | 33897 ft | 459 kts | 234° |
| 2026-05-07 19:06 | 20.06118 | 109.90858 | 33899 ft | 460 kts | 234° |
| 2026-05-07 19:07 | 20.02115 | 109.85542 | 33894 ft | 460 kts | 234° |
| 2026-05-07 19:07 | 19.98135 | 109.80260 | 33890 ft | 460 kts | 234° |
| 2026-05-07 19:08 | 19.94117 | 109.74935 | 33891 ft | 461 kts | 234° |
| 2026-05-07 19:08 | 19.90099 | 109.69612 | 33891 ft | 461 kts | 234° |
| 2026-05-07 19:09 | 19.86080 | 109.64293 | 33892 ft | 461 kts | 234° |
| 2026-05-07 19:09 | 19.82081 | 109.59006 | 33889 ft | 462 kts | 234° |
| 2026-05-07 19:10 | 19.78051 | 109.53682 | 33895 ft | 462 kts | 234° |
| 2026-05-07 19:10 | 19.74018 | 109.48358 | 33893 ft | 462 kts | 234° |
| 2026-05-07 19:11 | 19.69973 | 109.43024 | 33889 ft | 463 kts | 234° |
| 2026-05-07 19:11 | 19.65958 | 109.37734 | 33888 ft | 463 kts | 234° |
| 2026-05-07 19:12 | 19.61903 | 109.32399 | 33893 ft | 463 kts | 234° |
| 2026-05-07 19:12 | 19.57850 | 109.27067 | 33889 ft | 464 kts | 234° |
| 2026-05-07 19:13 | 19.53824 | 109.21775 | 33889 ft | 464 kts | 234° |
| 2026-05-07 19:13 | 19.49749 | 109.16446 | 33891 ft | 464 kts | 233° |
| 2026-05-07 19:14 | 19.45659 | 109.11146 | 33895 ft | 464 kts | 233° |
| 2026-05-07 19:14 | 19.41566 | 109.05845 | 33888 ft | 465 kts | 233° |
| 2026-05-07 19:15 | 19.37493 | 109.00568 | 33889 ft | 465 kts | 233° |
| 2026-05-07 19:15 | 19.33399 | 108.95269 | 33894 ft | 465 kts | 233° |
| 2026-05-07 19:16 | 19.29302 | 108.89974 | 33890 ft | 464 kts | 233° |
| 2026-05-07 19:16 | 19.25207 | 108.84682 | 33888 ft | 465 kts | 233° |
| 2026-05-07 19:17 | 19.21102 | 108.79380 | 33887 ft | 465 kts | 233° |
| 2026-05-07 19:17 | 19.17027 | 108.74124 | 33891 ft | 465 kts | 233° |
| 2026-05-07 19:18 | 19.12923 | 108.68833 | 33893 ft | 464 kts | 233° |
| 2026-05-07 19:18 | 19.08822 | 108.63555 | 33889 ft | 463 kts | 233° |
| 2026-05-07 19:19 | 19.04726 | 108.58286 | 33888 ft | 463 kts | 233° |
| 2026-05-07 19:19 | 19.00670 | 108.53068 | 33886 ft | 462 kts | 233° |
| 2026-05-07 19:20 | 18.96582 | 108.47814 | 33891 ft | 461 kts | 233° |
| 2026-05-07 19:20 | 18.92502 | 108.42577 | 33887 ft | 461 kts | 233° |
| 2026-05-07 19:21 | 18.88418 | 108.37340 | 33887 ft | 461 kts | 233° |
| 2026-05-07 19:21 | 18.84363 | 108.32145 | 33886 ft | 461 kts | 233° |
| 2026-05-07 19:22 | 18.80276 | 108.26910 | 33886 ft | 463 kts | 233° |
| 2026-05-07 19:22 | 18.76184 | 108.21674 | 33887 ft | 462 kts | 233° |
| 2026-05-07 19:23 | 18.72089 | 108.16440 | 33887 ft | 462 kts | 233° |
| 2026-05-07 19:23 | 18.67986 | 108.11197 | 33891 ft | 464 kts | 233° |
| 2026-05-07 19:24 | 18.63904 | 108.05990 | 33892 ft | 464 kts | 233° |
| 2026-05-07 19:24 | 18.59796 | 108.00751 | 33887 ft | 464 kts | 233° |
| 2026-05-07 19:25 | 18.55670 | 107.95495 | 33887 ft | 465 kts | 233° |
| 2026-05-07 19:25 | 18.51544 | 107.90244 | 33891 ft | 466 kts | 233° |
| 2026-05-07 19:26 | 18.47407 | 107.84984 | 33889 ft | 465 kts | 233° |
| 2026-05-07 19:26 | 18.43304 | 107.79774 | 33887 ft | 465 kts | 233° |
| 2026-05-07 19:27 | 18.39172 | 107.74524 | 33886 ft | 465 kts | 233° |
| 2026-05-07 19:27 | 18.35968 | 107.68695 | 33882 ft | 457 kts | 255° |
| 2026-05-07 19:28 | 18.35260 | 107.63252 | 33885 ft | 451 kts | 275° |
| 2026-05-07 19:28 | 18.36349 | 107.56799 | 33887 ft | 448 kts | 284° |
| 2026-05-07 19:29 | 18.37689 | 107.50388 | 33884 ft | 448 kts | 283° |
| 2026-05-07 19:29 | 18.38978 | 107.43962 | 33887 ft | 448 kts | 283° |
| 2026-05-07 19:30 | 18.40245 | 107.37581 | 33878 ft | 448 kts | 283° |
| 2026-05-07 19:30 | 18.41514 | 107.31153 | 33885 ft | 448 kts | 283° |
| 2026-05-07 19:31 | 18.42787 | 107.24725 | 33885 ft | 448 kts | 283° |
| 2026-05-07 19:31 | 18.44056 | 107.18295 | 33884 ft | 448 kts | 283° |
| 2026-05-07 19:32 | 18.45324 | 107.11856 | 33884 ft | 448 kts | 283° |
| 2026-05-07 19:32 | 18.46589 | 107.05426 | 33883 ft | 449 kts | 283° |
| 2026-05-07 19:33 | 18.47846 | 106.98988 | 33884 ft | 449 kts | 283° |
| 2026-05-07 19:33 | 18.49097 | 106.92582 | 33883 ft | 449 kts | 283° |
| 2026-05-07 19:34 | 18.50354 | 106.86132 | 33884 ft | 449 kts | 283° |
| 2026-05-07 19:34 | 18.51617 | 106.79658 | 33882 ft | 451 kts | 282° |
| 2026-05-07 19:35 | 18.52874 | 106.73187 | 33880 ft | 451 kts | 282° |
| 2026-05-07 19:35 | 18.54131 | 106.66704 | 33880 ft | 451 kts | 282° |
| 2026-05-07 19:36 | 18.55385 | 106.60220 | 33882 ft | 452 kts | 282° |
| 2026-05-07 19:36 | 18.56647 | 106.53736 | 33885 ft | 452 kts | 283° |
| 2026-05-07 19:37 | 18.57916 | 106.47289 | 33882 ft | 452 kts | 282° |
| 2026-05-07 19:37 | 18.59186 | 106.40805 | 33881 ft | 453 kts | 282° |
| 2026-05-07 19:38 | 18.60453 | 106.34316 | 33878 ft | 451 kts | 282° |
| 2026-05-07 19:38 | 18.61715 | 106.27828 | 33878 ft | 452 kts | 282° |
| 2026-05-07 19:39 | 18.62983 | 106.21322 | 33884 ft | 453 kts | 282° |
| 2026-05-07 19:39 | 18.64239 | 106.14852 | 33878 ft | 453 kts | 282° |
| 2026-05-07 19:40 | 18.65496 | 106.08353 | 33881 ft | 452 kts | 282° |
| 2026-05-07 19:40 | 18.66743 | 106.01843 | 33876 ft | 454 kts | 282° |
| 2026-05-07 19:41 | 18.67986 | 105.95326 | 33879 ft | 453 kts | 282° |
| 2026-05-07 19:41 | 18.69231 | 105.88812 | 33879 ft | 453 kts | 282° |
| 2026-05-07 19:42 | 18.70477 | 105.82278 | 33878 ft | 453 kts | 282° |
| 2026-05-07 19:42 | 18.71713 | 105.75789 | 33880 ft | 454 kts | 282° |
| 2026-05-07 19:43 | 18.72949 | 105.69263 | 33879 ft | 454 kts | 282° |
| 2026-05-07 19:43 | 18.74751 | 105.62880 | 33884 ft | 453 kts | 290° |
| 2026-05-07 19:44 | 18.76922 | 105.56635 | 33881 ft | 453 kts | 290° |
| 2026-05-07 19:44 | 18.79057 | 105.50430 | 33880 ft | 453 kts | 290° |
| 2026-05-07 19:45 | 18.81207 | 105.44164 | 33884 ft | 453 kts | 290° |
| 2026-05-07 19:45 | 18.83347 | 105.37911 | 33885 ft | 453 kts | 290° |
| 2026-05-07 19:46 | 18.85492 | 105.31653 | 33890 ft | 452 kts | 290° |
| 2026-05-07 19:46 | 18.87614 | 105.25440 | 33894 ft | 452 kts | 290° |
| 2026-05-07 19:47 | 18.89751 | 105.19182 | 33900 ft | 453 kts | 290° |
| 2026-05-07 19:47 | 18.91882 | 105.12920 | 33903 ft | 453 kts | 290° |
| 2026-05-07 19:48 | 18.94009 | 105.06669 | 33902 ft | 453 kts | 290° |
| 2026-05-07 19:48 | 18.96143 | 105.00399 | 33906 ft | 452 kts | 290° |
| 2026-05-07 19:49 | 18.98256 | 104.94183 | 33915 ft | 453 kts | 290° |
| 2026-05-07 19:49 | 19.00387 | 104.87913 | 33914 ft | 454 kts | 290° |
| 2026-05-07 19:50 | 19.02521 | 104.81620 | 33916 ft | 453 kts | 290° |
| 2026-05-07 19:50 | 19.04639 | 104.75314 | 33924 ft | 454 kts | 289° |
| 2026-05-07 19:51 | 19.06742 | 104.69049 | 33925 ft | 456 kts | 290° |
| 2026-05-07 19:51 | 19.08866 | 104.62743 | 33925 ft | 455 kts | 290° |
| 2026-05-07 19:52 | 19.10997 | 104.56430 | 33929 ft | 455 kts | 290° |
| 2026-05-07 19:52 | 19.13152 | 104.50136 | 33929 ft | 455 kts | 290° |
| 2026-05-07 19:53 | 19.15280 | 104.43854 | 33935 ft | 456 kts | 290° |
| 2026-05-07 19:53 | 19.17410 | 104.37523 | 33939 ft | 455 kts | 290° |
| 2026-05-07 19:54 | 19.19535 | 104.31194 | 33946 ft | 457 kts | 290° |
| 2026-05-07 19:54 | 19.21657 | 104.24861 | 33946 ft | 456 kts | 290° |
| 2026-05-07 19:55 | 19.23759 | 104.18579 | 33956 ft | 456 kts | 290° |
| 2026-05-07 19:55 | 19.25881 | 104.12238 | 33965 ft | 455 kts | 290° |
| 2026-05-07 19:56 | 19.27998 | 104.05893 | 33961 ft | 456 kts | 289° |
| 2026-05-07 19:56 | 19.30111 | 103.99557 | 33964 ft | 456 kts | 289° |
| 2026-05-07 19:57 | 19.32204 | 103.93267 | 33966 ft | 456 kts | 290° |
| 2026-05-07 19:57 | 19.34286 | 103.86909 | 33969 ft | 458 kts | 289° |
| 2026-05-07 19:58 | 19.36359 | 103.80542 | 33970 ft | 456 kts | 289° |
| 2026-05-07 19:58 | 19.38426 | 103.74186 | 33971 ft | 456 kts | 289° |
| 2026-05-07 19:59 | 19.40477 | 103.67872 | 33971 ft | 456 kts | 289° |
| 2026-05-07 19:59 | 19.42541 | 103.61519 | 33969 ft | 456 kts | 289° |
| 2026-05-07 20:00 | 19.44677 | 103.55191 | 33976 ft | 455 kts | 290° |
| 2026-05-07 20:00 | 19.46841 | 103.48889 | 33968 ft | 455 kts | 290° |
| 2026-05-07 20:01 | 19.48989 | 103.42583 | 33978 ft | 454 kts | 290° |
| 2026-05-07 20:01 | 19.51129 | 103.36288 | 33972 ft | 453 kts | 290° |
| 2026-05-07 20:02 | 19.53265 | 103.29996 | 33971 ft | 453 kts | 290° |
| 2026-05-07 20:02 | 19.55382 | 103.23740 | 33968 ft | 453 kts | 290° |
| 2026-05-07 20:03 | 19.57514 | 103.17451 | 33967 ft | 452 kts | 290° |
| 2026-05-07 20:03 | 19.59644 | 103.11160 | 33962 ft | 453 kts | 290° |
| 2026-05-07 20:04 | 19.61767 | 103.04866 | 33960 ft | 452 kts | 290° |
| 2026-05-07 20:04 | 19.63886 | 102.98580 | 33955 ft | 452 kts | 290° |
| 2026-05-07 20:05 | 19.66000 | 102.92313 | 33949 ft | 451 kts | 290° |
| 2026-05-07 20:05 | 19.68109 | 102.86038 | 33952 ft | 451 kts | 289° |
| 2026-05-07 20:06 | 19.70206 | 102.79790 | 33948 ft | 452 kts | 289° |
| 2026-05-07 20:06 | 19.72318 | 102.73505 | 33946 ft | 452 kts | 289° |
| 2026-05-07 20:07 | 19.74428 | 102.67207 | 33943 ft | 453 kts | 289° |
| 2026-05-07 20:07 | 19.76535 | 102.60911 | 33937 ft | 453 kts | 289° |
| 2026-05-07 20:08 | 19.78641 | 102.54614 | 33935 ft | 453 kts | 289° |
| 2026-05-07 20:08 | 19.80733 | 102.48339 | 33933 ft | 453 kts | 289° |
| 2026-05-07 20:09 | 19.82838 | 102.42016 | 33927 ft | 454 kts | 289° |
| 2026-05-07 20:10 | 19.86003 | 102.32520 | 33924 ft | 454 kts | 289° |
| 2026-05-07 20:10 | 19.88108 | 102.26184 | 33924 ft | 454 kts | 289° |
| 2026-05-07 20:11 | 19.90205 | 102.19859 | 33919 ft | 453 kts | 289° |
| 2026-05-07 20:11 | 19.92875 | 102.13824 | 33916 ft | 454 kts | 299° |
| 2026-05-07 20:12 | 19.96034 | 102.08004 | 33916 ft | 455 kts | 299° |
| 2026-05-07 20:12 | 19.99182 | 102.02172 | 33921 ft | 454 kts | 299° |
| 2026-05-07 20:13 | 20.02330 | 101.96316 | 33925 ft | 455 kts | 299° |
| 2026-05-07 20:13 | 20.04930 | 101.91468 | 33924 ft | 454 kts | 298° |
| 2026-05-07 20:14 | 20.08574 | 101.84670 | 33928 ft | 455 kts | 298° |
| 2026-05-07 20:14 | 20.11713 | 101.78821 | 33936 ft | 455 kts | 298° |
| 2026-05-07 20:15 | 20.14322 | 101.73948 | 33936 ft | 456 kts | 298° |
| 2026-05-07 20:15 | 20.17454 | 101.68092 | 33944 ft | 456 kts | 298° |
| 2026-05-07 20:16 | 20.20583 | 101.62235 | 33943 ft | 455 kts | 298° |
| 2026-05-07 20:16 | 20.23708 | 101.56376 | 33943 ft | 455 kts | 298° |
| 2026-05-07 20:17 | 20.26825 | 101.50525 | 33946 ft | 454 kts | 298° |
| 2026-05-07 20:17 | 20.29939 | 101.44678 | 33944 ft | 454 kts | 298° |
| 2026-05-07 20:18 | 20.33038 | 101.38856 | 33944 ft | 453 kts | 298° |
| 2026-05-07 20:18 | 20.36147 | 101.33000 | 33949 ft | 453 kts | 298° |
| 2026-05-07 20:19 | 20.39253 | 101.27160 | 33943 ft | 453 kts | 298° |
| 2026-05-07 20:19 | 20.42347 | 101.21328 | 33947 ft | 454 kts | 298° |
| 2026-05-07 20:20 | 20.45455 | 101.15464 | 33949 ft | 454 kts | 298° |
| 2026-05-07 20:20 | 20.48562 | 101.09598 | 33946 ft | 454 kts | 298° |
| 2026-05-07 20:21 | 20.51671 | 101.03714 | 33952 ft | 454 kts | 298° |
| 2026-05-07 20:21 | 20.54759 | 100.97870 | 33953 ft | 454 kts | 297° |
| 2026-05-07 20:22 | 20.57867 | 100.91981 | 33961 ft | 455 kts | 297° |
| 2026-05-07 20:22 | 20.60967 | 100.86097 | 33959 ft | 455 kts | 297° |
| 2026-05-07 20:23 | 20.64066 | 100.80213 | 33959 ft | 455 kts | 297° |
| 2026-05-07 20:23 | 20.67158 | 100.74331 | 33957 ft | 453 kts | 297° |
| 2026-05-07 20:24 | 20.70248 | 100.68448 | 33957 ft | 454 kts | 297° |
| 2026-05-07 20:24 | 20.73322 | 100.62594 | 33956 ft | 454 kts | 297° |
| 2026-05-07 20:25 | 20.76409 | 100.56697 | 33956 ft | 454 kts | 297° |
| 2026-05-07 20:25 | 20.79496 | 100.50815 | 33962 ft | 454 kts | 297° |
| 2026-05-07 20:26 | 20.82202 | 100.44753 | 33960 ft | 450 kts | 286° |
| 2026-05-07 20:26 | 20.83952 | 100.38347 | 33957 ft | 449 kts | 284° |
| 2026-05-07 20:27 | 20.85672 | 100.31933 | 33957 ft | 448 kts | 284° |
| 2026-05-07 20:27 | 20.87408 | 100.25523 | 33961 ft | 448 kts | 284° |
| 2026-05-07 20:28 | 20.89143 | 100.19131 | 33960 ft | 447 kts | 284° |
| 2026-05-07 20:28 | 20.90860 | 100.12782 | 33966 ft | 447 kts | 284° |
| 2026-05-07 20:29 | 20.92581 | 100.06397 | 33967 ft | 446 kts | 284° |
| 2026-05-07 20:29 | 20.94300 | 100.00022 | 33967 ft | 446 kts | 284° |
| 2026-05-07 20:30 | 20.96015 | 99.93640 | 33972 ft | 445 kts | 283° |
| 2026-05-07 20:30 | 20.97690 | 99.87291 | 33973 ft | 445 kts | 284° |
| 2026-05-07 20:31 | 20.99412 | 99.80929 | 33975 ft | 445 kts | 284° |
| 2026-05-07 20:31 | 21.01115 | 99.74550 | 33976 ft | 445 kts | 283° |
| 2026-05-07 20:32 | 21.02809 | 99.68186 | 33982 ft | 444 kts | 283° |
| 2026-05-07 20:32 | 21.04521 | 99.61814 | 33985 ft | 444 kts | 284° |
| 2026-05-07 20:33 | 21.06222 | 99.55500 | 33990 ft | 444 kts | 283° |
| 2026-05-07 20:33 | 21.07911 | 99.49143 | 33979 ft | 443 kts | 283° |
| 2026-05-07 20:34 | 21.09592 | 99.42775 | 33977 ft | 444 kts | 283° |
| 2026-05-07 20:34 | 21.11266 | 99.36416 | 33980 ft | 443 kts | 283° |
| 2026-05-07 20:35 | 21.12943 | 99.30063 | 33975 ft | 443 kts | 283° |
| 2026-05-07 20:35 | 21.14640 | 99.23712 | 33976 ft | 443 kts | 283° |
| 2026-05-07 20:36 | 21.16329 | 99.17367 | 33969 ft | 443 kts | 283° |
| 2026-05-07 20:36 | 21.18003 | 99.11020 | 33968 ft | 443 kts | 283° |
| 2026-05-07 20:37 | 21.19659 | 99.04716 | 33959 ft | 441 kts | 283° |
| 2026-05-07 20:37 | 21.21321 | 98.98373 | 33952 ft | 442 kts | 283° |
| 2026-05-07 20:38 | 21.22986 | 98.92028 | 33948 ft | 441 kts | 283° |
| 2026-05-07 20:38 | 21.24634 | 98.85735 | 33945 ft | 441 kts | 283° |
| 2026-05-07 20:39 | 21.26289 | 98.79408 | 33936 ft | 441 kts | 283° |
| 2026-05-07 20:39 | 21.27944 | 98.73073 | 33948 ft | 442 kts | 283° |
| 2026-05-07 20:40 | 21.29592 | 98.66739 | 33934 ft | 440 kts | 283° |
| 2026-05-07 20:40 | 21.31228 | 98.60415 | 33931 ft | 440 kts | 283° |
| 2026-05-07 20:41 | 21.32865 | 98.54129 | 33927 ft | 439 kts | 283° |
| 2026-05-07 20:41 | 21.34502 | 98.47813 | 33933 ft | 439 kts | 283° |
| 2026-05-07 20:42 | 21.36133 | 98.41506 | 33931 ft | 439 kts | 283° |
| 2026-05-07 20:42 | 21.37742 | 98.35194 | 33934 ft | 439 kts | 283° |
| 2026-05-07 20:43 | 21.39364 | 98.28884 | 33940 ft | 438 kts | 283° |
| 2026-05-07 20:43 | 21.41008 | 98.22590 | 33943 ft | 438 kts | 283° |
| 2026-05-07 20:44 | 21.42621 | 98.16334 | 33942 ft | 437 kts | 283° |
| 2026-05-07 20:44 | 21.44236 | 98.10038 | 33943 ft | 437 kts | 283° |
| 2026-05-07 20:45 | 21.45848 | 98.03747 | 33945 ft | 437 kts | 283° |
| 2026-05-07 20:45 | 21.47458 | 97.97452 | 33953 ft | 437 kts | 283° |
| 2026-05-07 20:46 | 21.49066 | 97.91152 | 33955 ft | 436 kts | 283° |
| 2026-05-07 20:46 | 21.50656 | 97.84913 | 33958 ft | 436 kts | 283° |
| 2026-05-07 20:47 | 21.52257 | 97.78625 | 33960 ft | 436 kts | 283° |
| 2026-05-07 20:47 | 21.53851 | 97.72342 | 33958 ft | 435 kts | 283° |
| 2026-05-07 20:48 | 21.55444 | 97.66064 | 33959 ft | 435 kts | 283° |
| 2026-05-07 20:48 | 21.57032 | 97.59788 | 33955 ft | 435 kts | 283° |
| 2026-05-07 20:49 | 21.58608 | 97.53551 | 33952 ft | 435 kts | 282° |
| 2026-05-07 20:49 | 21.60189 | 97.47281 | 33946 ft | 435 kts | 282° |
| 2026-05-07 20:50 | 21.61771 | 97.41004 | 33944 ft | 435 kts | 282° |
| 2026-05-07 20:50 | 21.63352 | 97.34717 | 33929 ft | 434 kts | 282° |
| 2026-05-07 20:51 | 21.64925 | 97.28450 | 33928 ft | 435 kts | 282° |
| 2026-05-07 20:51 | 21.66499 | 97.22169 | 33930 ft | 434 kts | 282° |
| 2026-05-07 20:52 | 21.68059 | 97.15930 | 33926 ft | 434 kts | 282° |
| 2026-05-07 20:52 | 21.69624 | 97.09660 | 33921 ft | 434 kts | 282° |
| 2026-05-07 20:53 | 21.71189 | 97.03379 | 33910 ft | 434 kts | 282° |
| 2026-05-07 20:53 | 21.72753 | 96.97104 | 33916 ft | 434 kts | 282° |
| 2026-05-07 20:54 | 21.74304 | 96.90859 | 33912 ft | 434 kts | 282° |
| 2026-05-07 20:54 | 21.75860 | 96.84566 | 33910 ft | 435 kts | 282° |
| 2026-05-07 20:55 | 21.77419 | 96.78275 | 33909 ft | 435 kts | 282° |
| 2026-05-07 20:55 | 21.78977 | 96.71975 | 33902 ft | 435 kts | 282° |
| 2026-05-07 20:56 | 21.80531 | 96.65676 | 33902 ft | 435 kts | 282° |
| 2026-05-07 20:56 | 21.82080 | 96.59384 | 33895 ft | 435 kts | 282° |
| 2026-05-07 20:57 | 21.83628 | 96.53092 | 33889 ft | 434 kts | 282° |
| 2026-05-07 20:57 | 21.85172 | 96.46805 | 33881 ft | 436 kts | 282° |
| 2026-05-07 20:58 | 21.86702 | 96.40549 | 33865 ft | 434 kts | 282° |
| 2026-05-07 20:58 | 21.88237 | 96.34266 | 33865 ft | 434 kts | 282° |
| 2026-05-07 20:59 | 21.89773 | 96.27980 | 33854 ft | 434 kts | 282° |
| 2026-05-07 20:59 | 21.91305 | 96.21695 | 33859 ft | 434 kts | 282° |
| 2026-05-07 21:00 | 21.92833 | 96.15411 | 33843 ft | 433 kts | 281° |
| 2026-05-07 21:00 | 21.93695 | 96.10116 | 33836 ft | 430 kts | 273° |
| 2026-05-07 21:01 | 21.94332 | 96.02652 | 33825 ft | 430 kts | 272° |
| 2026-05-07 21:01 | 21.94877 | 95.96244 | 33831 ft | 429 kts | 273° |
| 2026-05-07 21:02 | 21.95338 | 95.90908 | 33825 ft | 429 kts | 273° |
| 2026-05-07 21:02 | 21.95977 | 95.83461 | 33818 ft | 429 kts | 273° |
| 2026-05-07 21:03 | 21.96440 | 95.78092 | 33818 ft | 429 kts | 272° |
| 2026-05-07 21:03 | 21.96986 | 95.71688 | 33817 ft | 429 kts | 272° |
| 2026-05-07 21:04 | 21.97533 | 95.65282 | 33815 ft | 429 kts | 272° |
| 2026-05-07 21:04 | 21.98076 | 95.58887 | 33820 ft | 429 kts | 272° |
| 2026-05-07 21:05 | 21.98610 | 95.52519 | 33816 ft | 429 kts | 272° |
| 2026-05-07 21:05 | 21.99149 | 95.46123 | 33821 ft | 429 kts | 272° |
| 2026-05-07 21:06 | 21.99689 | 95.39717 | 33818 ft | 429 kts | 272° |
| 2026-05-07 21:06 | 22.00226 | 95.33316 | 33824 ft | 428 kts | 272° |
| 2026-05-07 21:07 | 22.00758 | 95.26920 | 33821 ft | 428 kts | 272° |
| 2026-05-07 21:07 | 22.01290 | 95.20521 | 33834 ft | 428 kts | 272° |
| 2026-05-07 21:08 | 22.01817 | 95.14164 | 33828 ft | 428 kts | 272° |
| 2026-05-07 21:08 | 22.02341 | 95.07759 | 33820 ft | 428 kts | 272° |
| 2026-05-07 21:09 | 22.02866 | 95.01366 | 33822 ft | 428 kts | 272° |
| 2026-05-07 21:09 | 22.03376 | 94.94968 | 33828 ft | 428 kts | 272° |
| 2026-05-07 21:10 | 22.03887 | 94.88574 | 33835 ft | 428 kts | 272° |
| 2026-05-07 21:10 | 22.04397 | 94.82216 | 33836 ft | 428 kts | 272° |
| 2026-05-07 21:11 | 22.04909 | 94.75811 | 33837 ft | 428 kts | 272° |
| 2026-05-07 21:11 | 22.05667 | 94.66217 | 33848 ft | 428 kts | 272° |
| 2026-05-07 21:12 | 22.06170 | 94.59824 | 33855 ft | 428 kts | 272° |
| 2026-05-07 21:12 | 22.06668 | 94.53464 | 33858 ft | 428 kts | 272° |
| 2026-05-07 21:13 | 22.07166 | 94.47053 | 33860 ft | 427 kts | 272° |
| 2026-05-07 21:13 | 22.07663 | 94.40656 | 33872 ft | 427 kts | 272° |
| 2026-05-07 21:14 | 22.08154 | 94.34312 | 33872 ft | 426 kts | 272° |
| 2026-05-07 21:14 | 22.08643 | 94.27932 | 33870 ft | 426 kts | 272° |
| 2026-05-07 21:15 | 22.09129 | 94.21558 | 33882 ft | 427 kts | 272° |
| 2026-05-07 21:15 | 22.09611 | 94.15198 | 33877 ft | 426 kts | 272° |
| 2026-05-07 21:16 | 22.10093 | 94.08864 | 33877 ft | 425 kts | 271° |
| 2026-05-07 21:16 | 22.10570 | 94.02511 | 33893 ft | 425 kts | 271° |
| 2026-05-07 21:17 | 22.11044 | 93.96146 | 33896 ft | 425 kts | 271° |
| 2026-05-07 21:17 | 22.11517 | 93.89788 | 33904 ft | 424 kts | 271° |
| 2026-05-07 21:18 | 22.11983 | 93.83486 | 33919 ft | 424 kts | 271° |
| 2026-05-07 21:18 | 22.12454 | 93.77131 | 33924 ft | 425 kts | 271° |
| 2026-05-07 21:19 | 22.12920 | 93.70771 | 33937 ft | 424 kts | 271° |
| 2026-05-07 21:19 | 22.13381 | 93.64429 | 33974 ft | 424 kts | 271° |
| 2026-05-07 21:20 | 22.13839 | 93.58110 | 33953 ft | 426 kts | 271° |
| 2026-05-07 21:20 | 22.14296 | 93.51755 | 33960 ft | 424 kts | 271° |
| 2026-05-07 21:21 | 22.14750 | 93.45405 | 33962 ft | 425 kts | 271° |
| 2026-05-07 21:21 | 22.15203 | 93.39037 | 33969 ft | 425 kts | 271° |
| 2026-05-07 21:22 | 22.15651 | 93.32718 | 33975 ft | 424 kts | 271° |
| 2026-05-07 21:22 | 22.16097 | 93.26370 | 33942 ft | 424 kts | 271° |
| 2026-05-07 21:23 | 22.16545 | 93.20013 | 33941 ft | 425 kts | 271° |
| 2026-05-07 21:23 | 22.16988 | 93.13655 | 33928 ft | 423 kts | 271° |
| 2026-05-07 21:24 | 22.17427 | 93.07322 | 33927 ft | 423 kts | 271° |
| 2026-05-07 21:24 | 22.17861 | 93.01016 | 33906 ft | 424 kts | 271° |
| 2026-05-07 21:25 | 22.18295 | 92.94680 | 33906 ft | 424 kts | 271° |
| 2026-05-07 21:25 | 22.18727 | 92.88346 | 33893 ft | 425 kts | 271° |
| 2026-05-07 21:26 | 22.19160 | 92.81997 | 33899 ft | 424 kts | 271° |
| 2026-05-07 21:26 | 22.19586 | 92.75693 | 33895 ft | 422 kts | 271° |
| 2026-05-07 21:27 | 22.20008 | 92.69368 | 33880 ft | 422 kts | 271° |
| 2026-05-07 21:27 | 22.20424 | 92.63038 | 33876 ft | 422 kts | 271° |
| 2026-05-07 21:28 | 22.20811 | 92.56720 | 33874 ft | 421 kts | 270° |
| 2026-05-07 21:28 | 22.21194 | 92.50403 | 33875 ft | 422 kts | 270° |
| 2026-05-07 21:29 | 22.21575 | 92.44114 | 33883 ft | 422 kts | 270° |
| 2026-05-07 21:29 | 22.21955 | 92.37801 | 33875 ft | 421 kts | 270° |
| 2026-05-07 21:30 | 22.22330 | 92.31484 | 33869 ft | 422 kts | 270° |
| 2026-05-07 21:30 | 22.22715 | 92.25166 | 33868 ft | 422 kts | 271° |
| 2026-05-07 21:31 | 22.23186 | 92.18850 | 33862 ft | 422 kts | 271° |
| 2026-05-07 21:31 | 22.23651 | 92.12569 | 33860 ft | 422 kts | 271° |
| 2026-05-07 21:32 | 22.24107 | 92.06239 | 33861 ft | 422 kts | 271° |
| 2026-05-07 21:32 | 22.24556 | 91.99916 | 33858 ft | 422 kts | 271° |
| 2026-05-07 21:33 | 22.25002 | 91.93624 | 33856 ft | 422 kts | 271° |
| 2026-05-07 21:33 | 22.25609 | 91.87309 | 33854 ft | 426 kts | 278° |
| 2026-05-07 21:34 | 22.27992 | 91.81376 | 33856 ft | 442 kts | 300° |
| 2026-05-07 21:34 | 22.32423 | 91.76645 | 33859 ft | 455 kts | 314° |
| 2026-05-07 21:35 | 22.37340 | 91.72325 | 33856 ft | 455 kts | 314° |
| 2026-05-07 21:35 | 22.42210 | 91.67967 | 33856 ft | 455 kts | 313° |
| 2026-05-07 21:36 | 22.47078 | 91.63584 | 33855 ft | 455 kts | 313° |
| 2026-05-07 21:36 | 22.51935 | 91.59196 | 33858 ft | 454 kts | 313° |
| 2026-05-07 21:37 | 22.56759 | 91.54839 | 33857 ft | 454 kts | 313° |
| 2026-05-07 21:37 | 22.61614 | 91.50452 | 33863 ft | 454 kts | 313° |
| 2026-05-07 21:38 | 22.66476 | 91.46049 | 34070 ft | 455 kts | 313° |
| 2026-05-07 21:38 | 22.68895 | 91.43855 | 34244 ft | 454 kts | 313° |
| 2026-05-07 21:38 | 22.71317 | 91.41660 | 34428 ft | 453 kts | 313° |
| 2026-05-07 21:39 | 22.73701 | 91.39498 | 34583 ft | 452 kts | 313° |
| 2026-05-07 21:39 | 22.76109 | 91.37314 | 34726 ft | 451 kts | 313° |
| 2026-05-07 21:39 | 22.78521 | 91.35123 | 34882 ft | 451 kts | 313° |
| 2026-05-07 21:39 | 22.80925 | 91.32940 | 35041 ft | 450 kts | 313° |
| 2026-05-07 21:40 | 22.83320 | 91.30761 | 35186 ft | 449 kts | 313° |
| 2026-05-07 21:40 | 22.85723 | 91.28578 | 35322 ft | 449 kts | 313° |
| 2026-05-07 21:40 | 22.88119 | 91.26399 | 35462 ft | 448 kts | 313° |
| 2026-05-07 21:40 | 22.90476 | 91.24255 | 35604 ft | 448 kts | 313° |
| 2026-05-07 21:41 | 22.92864 | 91.22080 | 35747 ft | 447 kts | 313° |
| 2026-05-07 21:41 | 22.95243 | 91.19912 | 35868 ft | 447 kts | 313° |
| 2026-05-07 21:41 | 22.99992 | 91.15585 | 35879 ft | 445 kts | 313° |
| 2026-05-07 21:42 | 23.04737 | 91.11255 | 35862 ft | 445 kts | 313° |
| 2026-05-07 21:42 | 23.09477 | 91.06923 | 35860 ft | 445 kts | 313° |
| 2026-05-07 21:43 | 23.14216 | 91.02595 | 35860 ft | 445 kts | 313° |
| 2026-05-07 21:43 | 23.18920 | 90.98292 | 35857 ft | 445 kts | 313° |
| 2026-05-07 21:44 | 23.23707 | 90.94014 | 35855 ft | 444 kts | 313° |
| 2026-05-07 21:44 | 23.28491 | 90.89737 | 35858 ft | 444 kts | 313° |
| 2026-05-07 21:45 | 23.33267 | 90.85461 | 35861 ft | 444 kts | 313° |
| 2026-05-07 21:45 | 23.38027 | 90.81195 | 35860 ft | 444 kts | 313° |
| 2026-05-07 21:46 | 23.42811 | 90.76912 | 35857 ft | 444 kts | 313° |
| 2026-05-07 21:46 | 23.47586 | 90.72630 | 35861 ft | 444 kts | 313° |
| 2026-05-07 21:47 | 23.52365 | 90.68343 | 35857 ft | 444 kts | 313° |
| 2026-05-07 21:47 | 23.57144 | 90.64054 | 35859 ft | 444 kts | 313° |
| 2026-05-07 21:48 | 23.61917 | 90.59764 | 35865 ft | 443 kts | 313° |
| 2026-05-07 21:48 | 23.66661 | 90.55501 | 35869 ft | 443 kts | 313° |
| 2026-05-07 21:49 | 23.71428 | 90.51208 | 35872 ft | 443 kts | 312° |
| 2026-05-07 21:49 | 23.75392 | 90.47638 | 35877 ft | 445 kts | 312° |
| 2026-05-07 21:50 | 23.80115 | 90.43291 | 35875 ft | 440 kts | 308° |
| 2026-05-07 21:50 | 23.82624 | 90.39924 | 35878 ft | 424 kts | 294° |
| 2026-05-07 21:50 | 23.83543 | 90.38006 | 35880 ft | 419 kts | 287° |
| 2026-05-07 21:51 | 23.85513 | 90.32103 | 35879 ft | 415 kts | 283° |
| 2026-05-07 21:51 | 23.87423 | 90.26162 | 35876 ft | 415 kts | 284° |
| 2026-05-07 21:52 | 23.89366 | 90.20228 | 35870 ft | 413 kts | 284° |
| 2026-05-07 21:52 | 23.91299 | 90.14346 | 35868 ft | 415 kts | 284° |
| 2026-05-07 21:53 | 23.93021 | 90.09097 | 35863 ft | 413 kts | 284° |
| 2026-05-07 21:53 | 23.94133 | 90.05702 | 35858 ft | 413 kts | 284° |
| 2026-05-07 21:54 | 23.95053 | 90.02885 | 35855 ft | 412 kts | 284° |
| 2026-05-07 21:54 | 23.96895 | 89.97383 | 35879 ft | 412 kts | 285° |
| 2026-05-07 21:55 | 23.99023 | 89.91539 | 35872 ft | 412 kts | 285° |
| 2026-05-07 21:55 | 24.01149 | 89.85698 | 35870 ft | 412 kts | 285° |
| 2026-05-07 21:56 | 24.03270 | 89.79864 | 35873 ft | 412 kts | 285° |
| 2026-05-07 21:56 | 24.05389 | 89.74020 | 35873 ft | 415 kts | 285° |
| 2026-05-07 21:57 | 24.07512 | 89.68164 | 35872 ft | 414 kts | 285° |
| 2026-05-07 21:57 | 24.09616 | 89.62346 | 35873 ft | 413 kts | 285° |
| 2026-05-07 21:58 | 24.11729 | 89.56493 | 35874 ft | 413 kts | 285° |
| 2026-05-07 21:58 | 24.13750 | 89.50621 | 35872 ft | 411 kts | 284° |
| 2026-05-07 21:59 | 24.15743 | 89.44791 | 35870 ft | 411 kts | 284° |
| 2026-05-07 21:59 | 24.17746 | 89.38922 | 35864 ft | 410 kts | 284° |
| 2026-05-07 22:00 | 24.19741 | 89.33068 | 35875 ft | 410 kts | 284° |
| 2026-05-07 22:00 | 24.21737 | 89.27205 | 35869 ft | 411 kts | 284° |
| 2026-05-07 22:01 | 24.23731 | 89.21342 | 35871 ft | 410 kts | 284° |
| 2026-05-07 22:01 | 24.25707 | 89.15516 | 35869 ft | 411 kts | 284° |
| 2026-05-07 22:02 | 24.27695 | 89.09650 | 35870 ft | 410 kts | 284° |
| 2026-05-07 22:02 | 24.29678 | 89.03790 | 35876 ft | 410 kts | 284° |
| 2026-05-07 22:03 | 24.31651 | 88.97953 | 35868 ft | 410 kts | 284° |
| 2026-05-07 22:03 | 24.33631 | 88.92088 | 35864 ft | 410 kts | 284° |
| 2026-05-07 22:04 | 24.35605 | 88.86220 | 35869 ft | 410 kts | 284° |
| 2026-05-07 22:04 | 24.37568 | 88.80394 | 35872 ft | 410 kts | 284° |
| 2026-05-07 22:05 | 24.39538 | 88.74529 | 35872 ft | 410 kts | 284° |
| 2026-05-07 22:05 | 24.41505 | 88.68671 | 35875 ft | 410 kts | 284° |
| 2026-05-07 22:06 | 24.43472 | 88.62799 | 35871 ft | 409 kts | 284° |
| 2026-05-07 22:06 | 24.45774 | 88.57041 | 35872 ft | 412 kts | 288° |
| 2026-05-07 22:07 | 24.48176 | 88.51358 | 35868 ft | 412 kts | 288° |